KELP/ELP METAR and TAF weather

Enter ICAO airport designator
Station Type Date Time Source
KELP METAR 2018/04/21 10:51 UTC NOAA

KELP 211051Z 34010KT 10SM CLR 12/M01 A3005 RMK AO2 SLP124 T01221011


Station Type Date Time Source
KELP Decoded METAR 2018/04/21 10:51 UTC NOAA

EL PASO INTERNATIONAL AIRPORT , TX, United States (KELP) 31-49N 106-23W 1197M
Apr 21, 2018 - 06:51 AM EDT / 2018.04.21 1051 UTC
Wind: from the NNW (340 degrees) at 12 MPH (10 KT):0
Visibility: 10 mile(s):0
Sky conditions: clear
Temperature: 54.0 F (12.2 C)
Dew Point: 30.0 F (-1.1 C)
Relative Humidity: 39%
Pressure (altimeter): 30.05 in. Hg (1017 hPa)
ob: KELP 211051Z 34010KT 10SM CLR 12/M01 A3005 RMK AO2 SLP124 T01221011
cycle: 11

Station Type Date Time Source
KELP TAF 2018/04/21 12:30 UTC NOAA

TAF KELP 211128Z 2112/2212 33010KT P6SM FEW300
FM211600 31011G19KT P6SM SKC
FM220300 VRB05KT P6SM SCT250


Example: see airport list